createdAt,value
2019-02-07T00:00:30.452Z,1009.17
2019-02-07T00:01:30.426Z,1009.14
2019-02-07T00:02:30.412Z,1009.08
2019-02-07T00:03:30.380Z,1009.07
2019-02-07T00:04:30.363Z,1009.06
2019-02-07T00:05:30.340Z,1009.08
2019-02-07T00:06:30.306Z,1009.06
2019-02-07T00:07:30.286Z,1009.04
2019-02-07T00:08:30.263Z,1009.04
2019-02-07T00:09:30.239Z,1009.01
2019-02-07T00:10:30.212Z,1009.01
2019-02-07T00:11:30.187Z,1008.99
2019-02-07T00:12:30.166Z,1008.98
2019-02-07T00:13:30.141Z,1008.94
2019-02-07T00:14:39.484Z,1008.92
2019-02-07T00:15:30.091Z,1008.88
2019-02-07T00:16:30.070Z,1008.85
2019-02-07T00:17:30.049Z,1008.86
2019-02-07T00:18:30.021Z,1008.79
2019-02-07T00:19:29.994Z,1008.75
2019-02-07T00:20:29.970Z,1008.78
2019-02-07T00:21:29.954Z,1008.75
2019-02-07T00:22:29.926Z,1008.72
2019-02-07T00:23:29.908Z,1008.74
2019-02-07T00:24:29.877Z,1008.72
2019-02-07T00:25:29.856Z,1008.70
2019-02-07T00:26:29.830Z,1008.66
2019-02-07T00:27:29.805Z,1008.69
2019-02-07T00:28:29.789Z,1008.63
2019-02-07T00:29:29.764Z,1008.60
2019-02-07T00:30:29.739Z,1008.58
2019-02-07T00:31:29.712Z,1008.61
2019-02-07T00:32:29.695Z,1008.60
2019-02-07T00:33:29.660Z,1008.58
2019-02-07T00:34:29.659Z,1008.56
2019-02-07T00:35:29.616Z,1008.57
2019-02-07T00:36:29.593Z,1008.49
2019-02-07T00:37:29.569Z,1008.47
2019-02-07T00:38:29.554Z,1008.47
2019-02-07T00:39:29.518Z,1008.46
2019-02-07T00:40:29.494Z,1008.44
2019-02-07T00:41:29.482Z,1008.44
2019-02-07T00:42:29.447Z,1008.40
2019-02-07T00:43:29.421Z,1008.34
2019-02-07T00:44:29.399Z,1008.31
2019-02-07T00:45:29.374Z,1008.27
2019-02-07T00:46:29.351Z,1008.28
2019-02-07T00:47:29.327Z,1008.21
2019-02-07T00:48:29.312Z,1008.22
2019-02-07T00:49:29.290Z,1008.19
2019-02-07T00:50:31.173Z,1008.13
2019-02-07T00:51:29.234Z,1008.15
2019-02-07T00:52:29.213Z,1008.12
2019-02-07T00:53:29.194Z,1008.12
2019-02-07T00:54:29.159Z,1008.09
2019-02-07T00:55:29.142Z,1008.09
2019-02-07T00:56:29.110Z,1008.03
2019-02-07T00:57:29.088Z,1008.02
2019-02-07T00:58:29.073Z,1007.98
2019-02-07T00:59:29.040Z,1008.05
2019-02-07T01:00:29.017Z,1008.00
2019-02-07T01:01:28.994Z,1008.01
2019-02-07T01:02:28.970Z,1007.93
2019-02-07T01:03:28.950Z,1007.95
2019-02-07T01:04:28.920Z,1007.98
2019-02-07T01:05:28.908Z,1007.98
2019-02-07T01:06:28.903Z,1007.93
2019-02-07T01:07:28.848Z,1007.92
2019-02-07T01:08:28.825Z,1007.89
2019-02-07T01:09:28.801Z,1007.86
2019-02-07T01:10:28.779Z,1007.88
2019-02-07T01:11:28.761Z,1007.87
2019-02-07T01:12:28.730Z,1007.83
2019-02-07T01:13:28.705Z,1007.81
2019-02-07T01:14:28.698Z,1007.81
2019-02-07T01:15:28.657Z,1007.79
2019-02-07T01:16:28.638Z,1007.76
2019-02-07T01:17:28.610Z,1007.79
2019-02-07T01:18:28.585Z,1007.77
2019-02-07T01:19:28.560Z,1007.76
2019-02-07T01:20:28.542Z,1007.69
2019-02-07T01:21:28.516Z,1007.74
2019-02-07T01:22:28.490Z,1007.68
2019-02-07T01:23:28.466Z,1007.68
2019-02-07T01:24:28.439Z,1007.66
2019-02-07T01:25:28.418Z,1007.60
2019-02-07T01:26:28.395Z,1007.65
2019-02-07T01:27:28.370Z,1007.58
2019-02-07T01:28:28.350Z,1007.56
2019-02-07T01:29:28.323Z,1007.52
2019-02-07T01:30:28.298Z,1007.51
2019-02-07T01:31:28.275Z,1007.50
2019-02-07T01:32:28.252Z,1007.54
2019-02-07T01:33:28.227Z,1007.46
2019-02-07T01:34:28.204Z,1007.44
2019-02-07T01:35:28.184Z,1007.43
2019-02-07T01:36:28.156Z,1007.42
2019-02-07T01:37:28.133Z,1007.41
2019-02-07T01:38:28.116Z,1007.43
2019-02-07T01:39:28.084Z,1007.42
2019-02-07T01:40:28.064Z,1007.35
2019-02-07T01:41:28.037Z,1007.33
2019-02-07T01:42:28.017Z,1007.27
2019-02-07T01:43:27.988Z,1007.28
2019-02-07T01:44:27.967Z,1007.27
2019-02-07T01:45:27.942Z,1007.24
2019-02-07T01:46:27.917Z,1007.20
2019-02-07T01:47:27.895Z,1007.20
2019-02-07T01:48:27.870Z,1007.11
2019-02-07T01:49:27.847Z,1007.13
2019-02-07T01:50:27.832Z,1007.09
2019-02-07T01:51:27.803Z,1007.10
2019-02-07T01:52:27.775Z,1007.00
2019-02-07T01:53:27.756Z,1007.08
2019-02-07T01:54:27.729Z,1007.00
2019-02-07T01:55:27.705Z,1007.01
2019-02-07T01:56:27.679Z,1006.98
2019-02-07T01:57:27.654Z,1007.01
2019-02-07T01:58:27.631Z,1006.99
2019-02-07T01:59:27.605Z,1006.94
2019-02-07T02:00:27.585Z,1006.96
2019-02-07T02:01:27.557Z,1006.93
2019-02-07T02:02:27.536Z,1006.88
2019-02-07T02:03:27.522Z,1006.90
2019-02-07T02:04:27.485Z,1006.85
2019-02-07T02:05:27.531Z,1006.89
2019-02-07T02:06:27.441Z,1006.83
2019-02-07T02:07:27.414Z,1006.80
2019-02-07T02:08:27.397Z,1006.78
2019-02-07T02:09:27.367Z,1006.75
2019-02-07T02:10:27.343Z,1006.75
2019-02-07T02:11:27.318Z,1006.72
2019-02-07T02:12:27.297Z,1006.72
2019-02-07T02:13:27.271Z,1006.68
2019-02-07T02:14:27.245Z,1006.65
2019-02-07T02:15:27.226Z,1006.62
2019-02-07T02:16:27.197Z,1006.60
2019-02-07T02:17:27.173Z,1006.59
2019-02-07T02:18:27.149Z,1006.62
2019-02-07T02:19:27.125Z,1006.62
2019-02-07T02:20:27.102Z,1006.58
2019-02-07T02:21:27.077Z,1006.55
2019-02-07T02:22:27.055Z,1006.55
2019-02-07T02:23:27.026Z,1006.55
2019-02-07T02:24:27.004Z,1006.51
2019-02-07T02:25:26.986Z,1006.50
2019-02-07T02:26:26.962Z,1006.49
2019-02-07T02:27:26.931Z,1006.45
2019-02-07T02:28:26.909Z,1006.43
2019-02-07T02:29:26.885Z,1006.37
2019-02-07T02:30:26.866Z,1006.35
2019-02-07T02:31:26.842Z,1006.35
2019-02-07T02:32:26.812Z,1006.35
2019-02-07T02:33:26.788Z,1006.33
2019-02-07T02:34:26.763Z,1006.26
2019-02-07T02:35:26.740Z,1006.25
2019-02-07T02:36:26.716Z,1006.24
2019-02-07T02:37:26.700Z,1006.26
2019-02-07T02:38:26.670Z,1006.24
2019-02-07T02:39:26.645Z,1006.24
2019-02-07T02:40:26.626Z,1006.22
2019-02-07T02:41:26.594Z,1006.18
2019-02-07T02:42:26.571Z,1006.10
2019-02-07T02:43:26.549Z,1006.05
2019-02-07T02:44:26.521Z,1006.09
2019-02-07T02:45:37.239Z,1006.07
2019-02-07T02:46:26.473Z,1006.09
2019-02-07T02:47:26.449Z,1006.05
2019-02-07T02:48:26.434Z,1006.06
2019-02-07T02:49:26.404Z,1006.07
2019-02-07T02:50:26.377Z,1006.03
2019-02-07T02:51:26.358Z,1006.01
2019-02-07T02:52:26.328Z,1006.00
2019-02-07T02:53:26.301Z,1005.96
2019-02-07T02:54:26.280Z,1005.93
2019-02-07T02:55:26.256Z,1005.92
2019-02-07T02:56:26.231Z,1005.86
2019-02-07T02:57:26.208Z,1005.86
2019-02-07T02:58:26.190Z,1005.86
2019-02-07T02:59:26.159Z,1005.83
2019-02-07T03:00:26.133Z,1005.83
2019-02-07T03:01:26.110Z,1005.78
2019-02-07T03:02:26.096Z,1005.77
2019-02-07T03:03:26.065Z,1005.73
2019-02-07T03:04:26.048Z,1005.74
2019-02-07T03:05:26.012Z,1005.74
2019-02-07T03:06:25.993Z,1005.70
2019-02-07T03:07:25.961Z,1005.68
2019-02-07T03:08:25.946Z,1005.73
2019-02-07T03:09:25.913Z,1005.67
2019-02-07T03:10:25.889Z,1005.65
2019-02-07T03:11:25.866Z,1005.69
2019-02-07T03:12:25.838Z,1005.64
2019-02-07T03:13:25.819Z,1005.65
2019-02-07T03:14:25.792Z,1005.63
2019-02-07T03:15:25.768Z,1005.60
2019-02-07T03:16:25.752Z,1005.64
2019-02-07T03:17:25.719Z,1005.65
2019-02-07T03:18:25.696Z,1005.62
2019-02-07T03:19:25.671Z,1005.58
2019-02-07T03:20:25.648Z,1005.60
2019-02-07T03:21:25.628Z,1005.59
2019-02-07T03:22:25.597Z,1005.54
2019-02-07T03:23:25.570Z,1005.49
2019-02-07T03:24:25.548Z,1005.49
2019-02-07T03:25:25.527Z,1005.49
2019-02-07T03:26:25.505Z,1005.45
2019-02-07T03:27:25.475Z,1005.39
2019-02-07T03:28:25.451Z,1005.34
2019-02-07T03:29:25.432Z,1005.35
2019-02-07T03:30:25.402Z,1005.33
2019-02-07T03:31:25.386Z,1005.32
2019-02-07T03:32:25.371Z,1005.23
2019-02-07T03:33:25.329Z,1005.21
2019-02-07T03:34:25.337Z,1005.17
2019-02-07T03:35:25.277Z,1005.19
2019-02-07T03:36:25.254Z,1005.12
2019-02-07T03:37:25.232Z,1005.05
2019-02-07T03:38:25.207Z,1005.03
2019-02-07T03:39:25.183Z,1005.04
2019-02-07T03:40:25.156Z,1004.98
2019-02-07T03:41:25.133Z,1004.95
2019-02-07T03:42:25.114Z,1004.94
2019-02-07T03:43:25.089Z,1004.94
2019-02-07T03:44:25.062Z,1004.92
2019-02-07T03:45:25.045Z,1004.91
2019-02-07T03:46:25.022Z,1004.89
2019-02-07T03:47:24.991Z,1004.84
2019-02-07T03:48:24.961Z,1004.82
2019-02-07T03:49:24.937Z,1004.82
2019-02-07T03:50:24.913Z,1004.83
2019-02-07T03:51:24.886Z,1004.78
2019-02-07T03:52:24.862Z,1004.73
2019-02-07T03:53:24.838Z,1004.74
2019-02-07T03:54:24.815Z,1004.71
2019-02-07T03:55:24.796Z,1004.67
2019-02-07T03:56:24.764Z,1004.67
2019-02-07T03:57:24.741Z,1004.68
2019-02-07T03:58:24.718Z,1004.59
2019-02-07T03:59:24.697Z,1004.62
2019-02-07T04:00:24.668Z,1004.54
2019-02-07T04:01:24.641Z,1004.55
2019-02-07T04:02:24.619Z,1004.50
2019-02-07T04:03:24.592Z,1004.45
2019-02-07T04:04:24.570Z,1004.44
2019-02-07T04:05:24.548Z,1004.44
2019-02-07T04:06:24.521Z,1004.41
2019-02-07T04:07:24.495Z,1004.40
2019-02-07T04:08:24.475Z,1004.41
2019-02-07T04:09:24.447Z,1004.44
2019-02-07T04:10:24.422Z,1004.40
2019-02-07T04:11:24.408Z,1004.37
2019-02-07T04:12:24.374Z,1004.32
2019-02-07T04:13:24.348Z,1004.35
2019-02-07T04:14:24.330Z,1004.32
2019-02-07T04:15:24.302Z,1004.27
2019-02-07T04:16:24.276Z,1004.32
2019-02-07T04:17:24.256Z,1004.27
2019-02-07T04:18:24.229Z,1004.23
2019-02-07T04:19:24.204Z,1004.20
2019-02-07T04:20:24.179Z,1004.20
2019-02-07T04:21:24.154Z,1004.20
2019-02-07T04:22:24.128Z,1004.19
2019-02-07T04:23:24.105Z,1004.19
2019-02-07T04:24:24.084Z,1004.16
2019-02-07T04:25:24.058Z,1004.14
2019-02-07T04:26:24.035Z,1004.16
2019-02-07T04:27:24.008Z,1004.16
2019-02-07T04:28:23.985Z,1004.09
2019-02-07T04:29:23.959Z,1004.09
2019-02-07T04:30:23.936Z,1004.07
2019-02-07T04:31:23.911Z,1004.06
2019-02-07T04:32:23.893Z,1004.00
2019-02-07T04:33:23.863Z,1003.98
2019-02-07T04:34:23.839Z,1003.97
2019-02-07T04:35:23.815Z,1003.96
2019-02-07T04:36:23.791Z,1003.98
2019-02-07T04:37:23.773Z,1003.93
2019-02-07T04:38:23.741Z,1003.91
2019-02-07T04:39:23.715Z,1003.88
2019-02-07T04:40:23.691Z,1003.88
2019-02-07T04:41:23.665Z,1003.85
2019-02-07T04:42:23.644Z,1003.81
2019-02-07T04:43:23.619Z,1003.81
2019-02-07T04:44:23.593Z,1003.83
2019-02-07T04:45:23.569Z,1003.87
2019-02-07T04:46:27.092Z,1003.81
2019-02-07T04:47:23.520Z,1003.81
2019-02-07T04:48:23.497Z,1003.76
2019-02-07T04:49:23.474Z,1003.75
2019-02-07T04:50:23.470Z,1003.70
2019-02-07T04:51:23.432Z,1003.70
2019-02-07T04:52:23.402Z,1003.67
2019-02-07T04:53:23.373Z,1003.68
2019-02-07T04:54:23.359Z,1003.72
2019-02-07T04:55:23.327Z,1003.66
2019-02-07T04:56:23.302Z,1003.68
2019-02-07T04:57:23.279Z,1003.68
2019-02-07T04:58:23.252Z,1003.59
2019-02-07T04:59:23.230Z,1003.62
2019-02-07T05:00:23.204Z,1003.55
2019-02-07T05:01:23.183Z,1003.60
2019-02-07T05:02:23.163Z,1003.56
2019-02-07T05:03:23.130Z,1003.50
2019-02-07T05:04:23.110Z,1003.49
2019-02-07T05:05:23.091Z,1003.51
2019-02-07T05:06:23.061Z,1003.51
2019-02-07T05:07:23.034Z,1003.45
2019-02-07T05:08:23.014Z,1003.49
2019-02-07T05:09:22.990Z,1003.50
2019-02-07T05:10:22.964Z,1003.46
2019-02-07T05:11:22.935Z,1003.47
2019-02-07T05:12:22.913Z,1003.44
2019-02-07T05:13:22.886Z,1003.43
2019-02-07T05:14:22.864Z,1003.43
2019-02-07T05:15:22.839Z,1003.40
2019-02-07T05:16:22.816Z,1003.36
2019-02-07T05:17:22.792Z,1003.37
2019-02-07T05:18:22.766Z,1003.30
2019-02-07T05:19:22.739Z,1003.35
2019-02-07T05:20:22.733Z,1003.29
2019-02-07T05:21:22.695Z,1003.29
2019-02-07T05:22:22.668Z,1003.26
2019-02-07T05:23:22.643Z,1003.26
2019-02-07T05:24:22.620Z,1003.25
2019-02-07T05:25:22.596Z,1003.22
2019-02-07T05:26:22.572Z,1003.18
2019-02-07T05:27:22.545Z,1003.19
2019-02-07T05:28:22.528Z,1003.22
2019-02-07T05:29:22.496Z,1003.18
2019-02-07T05:30:22.473Z,1003.21
2019-02-07T05:31:22.447Z,1003.17
2019-02-07T05:32:22.425Z,1003.21
2019-02-07T05:33:22.400Z,1003.16
2019-02-07T05:34:22.377Z,1003.19
2019-02-07T05:35:22.365Z,1003.12
2019-02-07T05:36:22.328Z,1003.13
2019-02-07T05:37:22.302Z,1003.06
2019-02-07T05:38:22.280Z,1003.01
2019-02-07T05:39:22.251Z,1003.06
2019-02-07T05:40:22.226Z,1002.99
2019-02-07T05:41:22.204Z,1002.95
2019-02-07T05:42:22.840Z,1002.97
2019-02-07T05:43:22.157Z,1002.92
2019-02-07T05:44:22.131Z,1002.90
2019-02-07T05:45:22.106Z,1002.93
2019-02-07T05:46:22.087Z,1002.86
2019-02-07T05:47:22.056Z,1002.89
2019-02-07T05:48:22.031Z,1002.86
2019-02-07T05:49:22.009Z,1002.84
2019-02-07T05:50:21.986Z,1002.83
2019-02-07T05:51:21.966Z,1002.77
2019-02-07T05:52:21.939Z,1002.80
2019-02-07T05:53:21.913Z,1002.76
2019-02-07T05:54:21.892Z,1002.79
2019-02-07T05:55:21.861Z,1002.76
2019-02-07T05:56:21.850Z,1002.71
2019-02-07T05:57:21.813Z,1002.72
2019-02-07T05:58:21.800Z,1002.67
2019-02-07T05:59:21.781Z,1002.63
2019-02-07T06:00:21.741Z,1002.59
2019-02-07T06:01:21.716Z,1002.69
2019-02-07T06:02:21.693Z,1002.63
2019-02-07T06:03:21.677Z,1002.52
2019-02-07T06:04:23.753Z,1002.54
2019-02-07T06:05:21.619Z,1002.57
2019-02-07T06:06:21.597Z,1002.50
2019-02-07T06:07:21.575Z,1002.49
2019-02-07T06:08:21.549Z,1002.36
2019-02-07T06:09:21.525Z,1002.46
2019-02-07T06:10:21.515Z,1002.47
2019-02-07T06:11:21.475Z,1002.48
2019-02-07T06:12:21.465Z,1002.48
2019-02-07T06:13:21.483Z,1002.42
2019-02-07T06:14:21.400Z,1002.44
2019-02-07T06:15:21.374Z,1002.44
2019-02-07T06:16:21.353Z,1002.39
2019-02-07T06:17:21.330Z,1002.41
2019-02-07T06:18:21.303Z,1002.36
2019-02-07T06:19:21.280Z,1002.38
2019-02-07T06:20:21.258Z,1002.40
2019-02-07T06:21:21.238Z,1002.38
2019-02-07T06:22:21.206Z,1002.42
2019-02-07T06:23:21.183Z,1002.37
2019-02-07T06:24:21.158Z,1002.33
2019-02-07T06:25:21.133Z,1002.31
2019-02-07T06:26:21.108Z,1002.31
2019-02-07T06:27:21.084Z,1002.29
2019-02-07T06:28:21.063Z,1002.21
2019-02-07T06:29:21.036Z,1002.21
2019-02-07T06:30:21.016Z,1002.17
2019-02-07T06:31:20.986Z,1002.16
2019-02-07T06:32:20.962Z,1002.17
2019-02-07T06:33:20.942Z,1002.13
2019-02-07T06:34:28.702Z,1002.10
2019-02-07T06:35:20.892Z,1002.11
2019-02-07T06:36:20.868Z,1002.08
2019-02-07T06:37:20.843Z,1002.01
2019-02-07T06:38:20.818Z,1002.02
2019-02-07T06:39:20.795Z,1002.08
2019-02-07T06:40:20.774Z,1002.05
2019-02-07T06:41:20.769Z,1002.03
2019-02-07T06:42:20.723Z,1002.06
2019-02-07T06:43:20.697Z,1002.04
2019-02-07T06:44:20.675Z,1002.05
2019-02-07T06:45:20.649Z,1002.07
2019-02-07T06:46:20.629Z,1002.03
2019-02-07T06:47:20.601Z,1002.05
2019-02-07T06:48:20.575Z,1002.02
2019-02-07T06:49:20.555Z,1002.07
2019-02-07T06:50:20.533Z,1002.06
2019-02-07T06:51:20.505Z,1002.09
2019-02-07T06:52:20.479Z,1002.03
2019-02-07T06:53:20.456Z,1002.09
2019-02-07T06:54:20.431Z,1001.99
2019-02-07T06:55:20.408Z,1002.02
2019-02-07T06:56:20.385Z,1002.01
2019-02-07T06:57:20.357Z,1001.97
2019-02-07T06:58:20.335Z,1002.01
2019-02-07T06:59:20.309Z,1001.89
2019-02-07T07:00:20.286Z,1001.94
2019-02-07T07:01:20.262Z,1001.95
2019-02-07T07:02:20.238Z,1001.89
2019-02-07T07:03:20.214Z,1001.88
2019-02-07T07:04:20.193Z,1001.88
2019-02-07T07:05:20.170Z,1001.89
2019-02-07T07:06:20.151Z,1001.89
2019-02-07T07:07:20.117Z,1001.87
2019-02-07T07:08:20.091Z,1001.95
2019-02-07T07:09:20.070Z,1001.83
2019-02-07T07:10:20.045Z,1001.90
2019-02-07T07:11:20.019Z,1001.88
2019-02-07T07:12:19.999Z,1001.86
2019-02-07T07:13:19.981Z,1001.87
2019-02-07T07:14:19.948Z,1001.80
2019-02-07T07:15:19.933Z,1001.84
2019-02-07T07:16:19.911Z,1001.89
2019-02-07T07:17:25.409Z,1001.83
2019-02-07T07:18:19.851Z,1001.84
2019-02-07T07:19:19.829Z,1001.82
2019-02-07T07:20:19.804Z,1001.84
2019-02-07T07:21:19.788Z,1001.90
2019-02-07T07:22:19.772Z,1001.83
2019-02-07T07:23:19.732Z,1001.85
2019-02-07T07:24:19.712Z,1001.92
2019-02-07T07:25:19.685Z,1001.85
2019-02-07T07:26:19.671Z,1001.84
2019-02-07T07:27:19.636Z,1001.84
2019-02-07T07:28:19.612Z,1001.90
2019-02-07T07:29:19.596Z,1001.84
2019-02-07T07:30:19.571Z,1001.83
2019-02-07T07:31:19.538Z,1001.79
2019-02-07T07:32:19.516Z,1001.86
2019-02-07T07:33:19.490Z,1001.84
2019-02-07T07:34:19.468Z,1001.83
2019-02-07T07:35:19.443Z,1001.87
2019-02-07T07:36:19.426Z,1001.87
2019-02-07T07:37:19.396Z,1001.85
2019-02-07T07:38:19.371Z,1001.90
2019-02-07T07:39:19.346Z,1001.90
2019-02-07T07:40:19.321Z,1001.86
2019-02-07T07:41:19.296Z,1001.89
2019-02-07T07:42:19.274Z,1001.89
2019-02-07T07:43:19.250Z,1001.81
2019-02-07T07:44:19.227Z,1001.80
2019-02-07T07:45:19.205Z,1001.86
2019-02-07T07:46:19.197Z,1001.72
2019-02-07T07:47:19.153Z,1001.74
2019-02-07T07:48:19.128Z,1001.78
2019-02-07T07:49:19.118Z,1001.68
2019-02-07T07:50:19.082Z,1001.71
2019-02-07T07:51:19.062Z,1001.75
2019-02-07T07:52:19.043Z,1001.70
2019-02-07T07:53:19.010Z,1001.70
2019-02-07T07:54:20.528Z,1001.72
2019-02-07T07:55:18.965Z,1001.70
2019-02-07T07:56:18.935Z,1001.72
2019-02-07T07:57:18.912Z,1001.73
2019-02-07T07:58:18.898Z,1001.78
2019-02-07T07:59:18.862Z,1001.69
2019-02-07T08:00:19.174Z,1001.72
2019-02-07T08:01:18.822Z,1001.73
2019-02-07T08:02:18.791Z,1001.75
2019-02-07T08:03:18.765Z,1001.76
2019-02-07T08:04:18.743Z,1001.72
2019-02-07T08:05:18.719Z,1001.76
2019-02-07T08:06:18.693Z,1001.73
2019-02-07T08:07:18.677Z,1001.74
2019-02-07T08:08:18.647Z,1001.74
2019-02-07T08:09:18.623Z,1001.77
2019-02-07T08:10:18.602Z,1001.78
2019-02-07T08:11:18.573Z,1001.76
2019-02-07T08:12:18.551Z,1001.76
2019-02-07T08:13:18.532Z,1001.86
2019-02-07T08:14:18.504Z,1001.81
2019-02-07T08:15:18.481Z,1001.89
2019-02-07T08:16:18.462Z,1001.82
2019-02-07T08:17:18.534Z,1001.79
2019-02-07T08:18:18.412Z,1001.70
2019-02-07T08:19:18.383Z,1001.83
2019-02-07T08:20:18.360Z,1001.82
2019-02-07T08:21:18.334Z,1001.72
2019-02-07T08:22:18.326Z,1001.69
2019-02-07T08:23:18.292Z,1001.76
2019-02-07T08:24:18.263Z,1001.75
2019-02-07T08:25:18.243Z,1001.81
2019-02-07T08:26:18.221Z,1001.72
2019-02-07T08:27:18.198Z,1001.68
2019-02-07T08:28:18.168Z,1001.71
2019-02-07T08:29:18.142Z,1001.69
2019-02-07T08:30:18.122Z,1001.73
2019-02-07T08:31:18.094Z,1001.74
2019-02-07T08:32:18.069Z,1001.76
2019-02-07T08:33:18.049Z,1001.70
2019-02-07T08:34:18.027Z,1001.74
2019-02-07T08:35:17.994Z,1001.75
2019-02-07T08:36:17.972Z,1001.72
2019-02-07T08:37:17.948Z,1001.73
2019-02-07T08:38:17.931Z,1001.62
2019-02-07T08:39:17.901Z,1001.67
2019-02-07T08:40:17.879Z,1001.66
2019-02-07T08:41:17.859Z,1001.70
2019-02-07T08:42:17.827Z,1001.70
2019-02-07T08:43:17.805Z,1001.76
2019-02-07T08:44:17.782Z,1001.77
2019-02-07T08:45:17.761Z,1001.76
2019-02-07T08:46:17.747Z,1001.77
2019-02-07T08:47:17.774Z,1001.75
2019-02-07T08:48:17.691Z,1001.81
2019-02-07T08:49:17.660Z,1001.81
2019-02-07T08:50:17.635Z,1001.82
2019-02-07T08:51:17.611Z,1001.82
2019-02-07T08:52:17.597Z,1001.80
2019-02-07T08:53:17.564Z,1001.82
2019-02-07T08:54:17.545Z,1001.81
2019-02-07T08:55:17.523Z,1001.79
2019-02-07T08:56:17.497Z,1001.82
2019-02-07T08:57:17.468Z,1001.89
2019-02-07T08:58:17.442Z,1001.85
2019-02-07T08:59:17.424Z,1001.86
2019-02-07T09:00:17.399Z,1001.84
2019-02-07T09:01:17.372Z,1001.81
2019-02-07T09:02:17.348Z,1001.81
2019-02-07T09:03:17.324Z,1001.62
2019-02-07T09:04:17.308Z,1001.64
2019-02-07T09:05:17.280Z,1001.68
2019-02-07T09:06:17.253Z,1001.77
2019-02-07T09:07:17.233Z,1001.79
2019-02-07T09:08:17.204Z,1001.78
2019-02-07T09:09:17.179Z,1001.76
2019-02-07T09:10:17.157Z,1001.72
2019-02-07T09:11:17.133Z,1001.75
2019-02-07T09:12:17.110Z,1001.78
2019-02-07T09:13:17.087Z,1001.79
2019-02-07T09:14:17.065Z,1001.76
2019-02-07T09:15:17.041Z,1001.76
2019-02-07T09:16:17.016Z,1001.73
2019-02-07T09:17:16.994Z,1001.79
2019-02-07T09:18:16.967Z,1001.81
2019-02-07T09:19:16.949Z,1001.83
2019-02-07T09:20:16.920Z,1001.81
2019-02-07T09:21:16.895Z,1001.82
2019-02-07T09:22:16.870Z,1001.95
2019-02-07T09:23:16.848Z,1001.92
2019-02-07T09:24:16.822Z,1001.97
2019-02-07T09:25:16.803Z,1001.92
2019-02-07T09:26:16.775Z,1001.90
2019-02-07T09:27:16.797Z,1001.89
2019-02-07T09:28:16.811Z,1001.92
2019-02-07T09:29:16.709Z,1001.89
2019-02-07T09:30:16.679Z,1001.87
2019-02-07T09:31:16.662Z,1001.85
2019-02-07T09:32:16.718Z,1001.93
2019-02-07T09:33:16.607Z,1001.84
2019-02-07T09:34:16.591Z,1001.88
2019-02-07T09:35:16.559Z,1001.94
2019-02-07T09:36:16.533Z,1002.01
2019-02-07T09:37:16.511Z,1001.96
2019-02-07T09:38:16.488Z,1001.93
2019-02-07T09:39:16.463Z,1001.94
2019-02-07T09:40:16.448Z,1001.99
2019-02-07T09:41:16.416Z,1002.00
2019-02-07T09:42:16.395Z,1002.02
2019-02-07T09:43:16.372Z,1001.94
2019-02-07T09:44:16.342Z,1002.00
2019-02-07T09:45:16.326Z,1002.04
2019-02-07T09:46:16.297Z,1002.02
2019-02-07T09:47:16.270Z,1002.11
2019-02-07T09:48:21.708Z,1002.00
2019-02-07T09:49:16.227Z,1002.00
2019-02-07T09:50:16.217Z,1002.01
2019-02-07T09:51:16.289Z,1001.97
2019-02-07T09:52:16.155Z,1001.98
2019-02-07T09:53:23.774Z,1001.98
2019-02-07T09:54:16.106Z,1001.96
2019-02-07T09:55:16.084Z,1002.00
2019-02-07T09:56:16.068Z,1001.97
2019-02-07T09:57:16.036Z,1001.95
2019-02-07T09:58:16.018Z,1001.99
2019-02-07T09:59:15.988Z,1001.92
2019-02-07T10:00:15.970Z,1001.96
2019-02-07T10:01:15.960Z,1002.00
2019-02-07T10:02:15.918Z,1002.10
2019-02-07T10:03:15.905Z,1002.06
2019-02-07T10:04:15.870Z,1002.08
2019-02-07T10:05:15.858Z,1002.21
2019-02-07T10:06:15.824Z,1002.20
2019-02-07T10:07:15.802Z,1002.14
2019-02-07T10:08:15.778Z,1002.10
2019-02-07T10:09:15.756Z,1002.17
2019-02-07T10:10:15.730Z,1002.20
2019-02-07T10:11:15.717Z,1002.30
2019-02-07T10:12:15.679Z,1002.25
2019-02-07T10:13:15.657Z,1002.26
2019-02-07T10:14:15.636Z,1002.25
2019-02-07T10:15:15.610Z,1002.28
2019-02-07T10:16:15.594Z,1002.26
2019-02-07T10:17:15.570Z,1002.33
2019-02-07T10:18:15.540Z,1002.28
2019-02-07T10:19:15.523Z,1002.39
2019-02-07T10:20:15.497Z,1002.24
2019-02-07T10:21:15.474Z,1002.33
2019-02-07T10:22:15.446Z,1002.34
2019-02-07T10:23:15.422Z,1002.41
2019-02-07T10:24:15.399Z,1002.46
2019-02-07T10:25:15.377Z,1002.32
2019-02-07T10:26:15.357Z,1002.35
2019-02-07T10:27:15.329Z,1002.35
2019-02-07T10:28:15.304Z,1002.34
2019-02-07T10:29:15.280Z,1002.35
2019-02-07T10:30:15.257Z,1002.35
2019-02-07T10:31:15.248Z,1002.45
2019-02-07T10:32:15.211Z,1002.33
2019-02-07T10:33:15.191Z,1002.36
2019-02-07T10:34:15.163Z,1002.39
2019-02-07T10:35:22.684Z,1002.34
2019-02-07T10:36:15.118Z,1002.42
2019-02-07T10:37:15.092Z,1002.38
2019-02-07T10:38:15.073Z,1002.41
2019-02-07T10:39:15.054Z,1002.43
2019-02-07T10:40:15.059Z,1002.41
2019-02-07T10:41:15.002Z,1002.43
2019-02-07T10:42:14.995Z,1002.45
2019-02-07T10:43:14.961Z,1002.51
2019-02-07T10:44:14.934Z,1002.54
2019-02-07T10:45:14.908Z,1002.53
2019-02-07T10:46:14.884Z,1002.53
2019-02-07T10:47:14.858Z,1002.52
2019-02-07T10:48:14.835Z,1002.48
2019-02-07T10:49:14.817Z,1002.59
2019-02-07T10:50:14.790Z,1002.49
2019-02-07T10:51:14.766Z,1002.43
2019-02-07T10:52:14.742Z,1002.53
2019-02-07T10:53:14.719Z,1002.40
2019-02-07T10:54:14.698Z,1002.49
2019-02-07T10:55:14.673Z,1002.50
2019-02-07T10:56:14.659Z,1002.57
2019-02-07T10:57:14.628Z,1002.60
2019-02-07T10:58:14.606Z,1002.50
2019-02-07T10:59:14.579Z,1002.56
2019-02-07T11:00:14.560Z,1002.50
2019-02-07T11:01:14.541Z,1002.49
2019-02-07T11:02:14.518Z,1002.45
2019-02-07T11:03:14.498Z,1002.49
2019-02-07T11:04:14.465Z,1002.47
2019-02-07T11:05:14.446Z,1002.48
2019-02-07T11:06:14.421Z,1002.44
2019-02-07T11:07:14.397Z,1002.48
2019-02-07T11:08:14.372Z,1002.44
2019-02-07T11:09:14.355Z,1002.43
2019-02-07T11:10:14.337Z,1002.51
2019-02-07T11:11:14.303Z,1002.40
2019-02-07T11:12:14.282Z,1002.46
2019-02-07T11:13:14.268Z,1002.38
2019-02-07T11:14:14.234Z,1002.43
2019-02-07T11:15:14.215Z,1002.41
2019-02-07T11:16:14.191Z,1002.25
2019-02-07T11:17:14.176Z,1002.31
2019-02-07T11:18:14.143Z,1002.36
2019-02-07T11:19:20.870Z,1002.30
2019-02-07T11:20:14.098Z,1002.43
2019-02-07T11:21:14.075Z,1002.25
2019-02-07T11:22:14.051Z,1002.33
2019-02-07T11:23:14.035Z,1002.24
2019-02-07T11:24:14.007Z,1002.25
2019-02-07T11:25:13.983Z,1002.34
2019-02-07T11:26:13.960Z,1002.27
2019-02-07T11:27:13.940Z,1002.27
2019-02-07T11:28:13.915Z,1002.23
2019-02-07T11:29:13.896Z,1002.31
2019-02-07T11:30:13.868Z,1002.35
2019-02-07T11:31:13.850Z,1002.27
2019-02-07T11:32:13.834Z,1002.29
2019-02-07T11:33:13.801Z,1002.28
2019-02-07T11:34:13.781Z,1002.25
2019-02-07T11:35:13.762Z,1002.24
2019-02-07T11:36:13.732Z,1002.16
2019-02-07T11:37:13.717Z,1002.24
2019-02-07T11:38:13.688Z,1002.27
2019-02-07T11:39:13.665Z,1002.20
2019-02-07T11:40:13.643Z,1002.25
2019-02-07T11:41:13.630Z,1002.22
2019-02-07T11:42:13.602Z,1002.19
2019-02-07T11:43:13.575Z,1002.17
2019-02-07T11:44:13.558Z,1002.10
2019-02-07T11:45:13.530Z,1002.27
2019-02-07T11:46:13.512Z,1002.24
2019-02-07T11:47:13.488Z,1002.33
2019-02-07T11:48:13.472Z,1002.36
2019-02-07T11:49:13.449Z,1002.26
2019-02-07T11:50:13.429Z,1002.27
2019-02-07T11:51:13.398Z,1002.28
2019-02-07T11:52:13.371Z,1002.25
2019-02-07T11:53:13.351Z,1002.24
2019-02-07T11:54:13.329Z,1002.24
2019-02-07T11:55:13.301Z,1002.27
2019-02-07T11:56:13.285Z,1002.21
2019-02-07T11:57:13.264Z,1002.24
2019-02-07T11:58:13.234Z,1002.22
2019-02-07T11:59:13.213Z,1002.24
2019-02-07T12:00:13.187Z,1002.22
2019-02-07T12:01:13.170Z,1002.30
2019-02-07T12:02:13.148Z,1002.22
2019-02-07T12:03:13.128Z,1002.29
2019-02-07T12:04:13.099Z,1002.21
2019-02-07T12:05:13.076Z,1002.23